Time;durP1;ratioP1;P1;durP2;ratioP2;P2;SDS_P1;SDS_P2;PMS_P1;PMS_P2;Temp;Humidity;BMP_temperature;BMP_pressure;BME280_temperature;BME280_humidity;BME280_pressure;Samples;Min_cycle;Max_cycle;Signal;HPM_P1;HPM_P2
2022/07/04 00:02:24;;;;;;;2.45;1.00;;;;;;;28.35;41.01;101823.06;5049321;28;20120;-77
2022/07/04 00:04:49;;;;;;;1.75;1.05;;;;;;;28.33;40.76;101809.72;5049269;28;20048;-77
2022/07/04 00:07:15;;;;;;;1.67;0.90;;;;;;;28.31;40.89;101808.91;5048766;28;20111;-77
2022/07/04 00:09:40;;;;;;;1.20;0.90;;;;;;;28.28;40.92;101811.75;5049041;28;20075;-78
2022/07/04 00:12:06;;;;;;;1.73;1.08;;;;;;;28.29;41.00;101817.97;5048022;28;20507;-77
2022/07/04 00:14:31;;;;;;;1.75;0.98;;;;;;;28.29;40.53;101821.53;5047809;28;20041;-78
2022/07/04 00:16:57;;;;;;;1.65;0.90;;;;;;;28.29;40.78;101807.25;5049538;28;20403;-77
2022/07/04 00:19:22;;;;;;;1.52;1.02;;;;;;;28.28;40.90;101813.53;5049159;28;20055;-77
2022/07/04 00:21:47;;;;;;;1.33;0.90;;;;;;;28.23;40.75;101822.69;5048759;28;20106;-77
2022/07/04 00:24:13;;;;;;;1.63;0.90;;;;;;;28.22;41.08;101815.56;5049126;28;20033;-77
2022/07/04 00:26:38;;;;;;;1.50;1.00;;;;;;;28.23;40.65;101811.97;5043692;28;20555;-77
2022/07/04 00:29:04;;;;;;;1.08;0.90;;;;;;;28.24;40.92;101816.34;5048782;28;20028;-78
2022/07/04 00:31:29;;;;;;;1.48;0.98;;;;;;;28.22;41.01;101809.34;5047565;28;20032;-77
2022/07/04 00:33:54;;;;;;;1.42;1.08;;;;;;;28.21;40.95;101799.53;5031091;28;20029;-77
2022/07/04 00:36:20;;;;;;;1.02;0.85;;;;;;;28.18;40.90;101797.84;5048946;28;20037;-77
2022/07/04 00:38:45;;;;;;;1.10;0.90;;;;;;;28.20;41.14;101793.31;5048362;28;20155;-77
2022/07/04 00:41:10;;;;;;;1.10;0.90;;;;;;;28.17;40.64;101801.50;5048436;28;20025;-77
2022/07/04 00:43:36;;;;;;;1.67;0.90;;;;;;;28.18;40.97;101800.53;5047621;28;20037;-77
2022/07/04 00:46:05;;;;;;;1.55;0.90;;;;;;;28.19;40.87;101801.41;5029617;28;20025;-77
2022/07/04 00:48:31;;;;;;;1.20;0.95;;;;;;;28.17;41.14;101803.31;5045883;28;20041;-78
2022/07/04 00:50:57;;;;;;;1.20;0.90;;;;;;;28.17;40.90;101806.88;5045722;28;20067;-77
2022/07/04 00:53:23;;;;;;;1.55;1.00;;;;;;;28.14;40.85;101807.00;5047486;28;20041;-77
2022/07/04 00:55:52;;;;;;;1.25;0.90;;;;;;;28.15;40.66;101803.38;5047367;28;20024;-77
2022/07/04 00:58:22;;;;;;;2.17;0.90;;;;;;;28.14;40.82;101811.47;5047233;28;20408;-77
2022/07/04 01:00:49;;;;;;;1.35;0.90;;;;;;;28.15;40.77;101811.41;5046229;28;20033;-77
2022/07/04 01:03:14;;;;;;;1.30;0.90;;;;;;;28.14;41.08;101822.19;5048410;28;20032;-77
2022/07/04 01:05:41;;;;;;;1.42;0.90;;;;;;;28.13;40.76;101815.06;5048025;28;20036;-77
2022/07/04 01:08:07;;;;;;;1.40;0.90;;;;;;;28.15;40.80;101815.91;5047445;28;20051;-77
2022/07/04 01:10:32;;;;;;;1.63;1.00;;;;;;;28.10;40.72;101823.25;5048245;28;20037;-78
2022/07/04 01:12:58;;;;;;;0.80;0.80;;;;;;;28.07;40.91;101818.88;5047260;28;20114;-78
2022/07/04 01:15:23;;;;;;;2.08;1.00;;;;;;;28.12;40.88;101816.00;5046813;28;20029;-77
2022/07/04 01:17:49;;;;;;;1.38;0.88;;;;;;;28.07;40.92;101816.22;5048239;28;20213;-77
2022/07/04 01:20:15;;;;;;;1.98;1.00;;;;;;;28.05;40.86;101812.75;5047125;28;20037;-77
2022/07/04 01:22:41;;;;;;;1.35;0.80;;;;;;;28.07;40.95;101818.88;5044794;28;20029;-77
2022/07/04 01:25:10;;;;;;;1.17;0.90;;;;;;;28.06;40.89;101818.94;5048153;28;20044;-77
2022/07/04 01:27:35;;;;;;;1.75;1.02;;;;;;;28.06;40.78;101810.91;5046882;28;20044;-77
2022/07/04 01:30:01;;;;;;;1.13;0.80;;;;;;;28.06;40.58;101809.09;5048166;28;20086;-78
2022/07/04 01:32:26;;;;;;;1.77;0.90;;;;;;;28.06;40.73;101805.53;5048104;28;20033;-77
2022/07/04 01:34:51;;;;;;;2.60;1.00;;;;;;;28.06;40.71;101805.53;5048081;28;20136;-77
2022/07/04 01:37:17;;;;;;;1.55;0.80;;;;;;;28.03;40.81;101803.03;5048045;28;20099;-77
2022/07/04 01:39:43;;;;;;;1.73;0.82;;;;;;;28.01;40.56;101805.75;5048310;28;20039;-77
2022/07/04 01:42:08;;;;;;;1.30;0.88;;;;;;;28.05;40.77;101801.16;5046711;28;20033;-77
2022/07/04 01:44:34;;;;;;;1.85;0.90;;;;;;;27.98;40.96;101797.00;5048151;28;20411;-77
2022/07/04 01:47:00;;;;;;;2.63;0.98;;;;;;;27.99;40.79;101796.94;5047745;28;20029;-77
2022/07/04 01:49:25;;;;;;;0.93;0.75;;;;;;;28.00;40.78;101795.09;5035229;28;20533;-78
2022/07/04 01:51:51;;;;;;;1.08;0.90;;;;;;;28.02;40.71;101793.22;5045393;28;20091;-77
2022/07/04 01:54:17;;;;;;;1.45;0.90;;;;;;;28.00;40.83;101797.78;5043355;28;20033;-77
2022/07/04 01:56:43;;;;;;;1.20;0.90;;;;;;;28.00;40.53;101795.09;5048201;28;20131;-77
2022/07/04 01:59:09;;;;;;;1.27;0.90;;;;;;;27.97;40.80;101787.22;5046547;28;20047;-77
2022/07/04 02:01:35;;;;;;;1.50;0.90;;;;;;;27.98;40.50;101789.81;5047864;28;20036;-77
2022/07/04 02:04:02;;;;;;;1.05;0.85;;;;;;;28.00;40.73;101789.72;5047329;28;20021;-77
2022/07/04 02:06:28;;;;;;;1.20;0.80;;;;;;;27.97;40.81;101792.56;5044463;28;20034;-77
2022/07/04 02:14:21;;;;;;;1.58;1.00;;;;;;;27.96;40.77;101786.34;5047893;28;19932;-77
2022/07/04 02:16:47;;;;;;;1.10;0.90;;;;;;;27.96;40.43;101786.34;5045595;28;20436;-78
2022/07/04 02:19:12;;;;;;;1.20;0.88;;;;;;;27.95;40.76;101789.06;5047486;28;20033;-77
2022/07/04 02:21:38;;;;;;;1.17;0.90;;;;;;;27.91;40.63;101793.72;5046527;28;20021;-77
2022/07/04 02:24:04;;;;;;;1.00;0.80;;;;;;;27.90;40.60;101800.00;5047459;28;20465;-77
2022/07/04 02:26:29;;;;;;;1.30;0.75;;;;;;;27.90;40.84;101793.78;5050592;28;20028;-77
2022/07/04 02:28:54;;;;;;;0.95;0.80;;;;;;;27.90;40.54;101791.97;5051057;28;20669;-77
2022/07/04 02:31:20;;;;;;;3.28;0.90;;;;;;;27.91;40.55;101792.84;5050082;28;20037;-77
2022/07/04 02:33:45;;;;;;;1.15;0.90;;;;;;;27.88;40.57;101784.91;5050891;28;20029;-77
2022/07/04 02:36:11;;;;;;;1.33;0.80;;;;;;;27.89;40.79;101786.66;5050913;28;20021;-78
2022/07/04 02:38:36;;;;;;;2.05;1.00;;;;;;;27.87;40.81;101781.41;5051101;28;20032;-77
2022/07/04 02:41:01;;;;;;;1.20;0.90;;;;;;;27.84;40.73;101770.78;5050664;28;20029;-78
2022/07/04 02:43:27;;;;;;;1.10;0.90;;;;;;;27.80;40.79;101767.41;5050866;28;20033;-77
2022/07/04 02:45:52;;;;;;;1.27;1.00;;;;;;;27.85;40.58;101769.88;5050444;28;20400;-77
2022/07/04 02:48:18;;;;;;;1.00;0.90;;;;;;;27.85;40.80;101773.41;5050880;28;20040;-77
2022/07/04 02:50:43;;;;;;;0.90;0.80;;;;;;;27.84;40.71;101781.53;5050413;28;20072;-77
2022/07/04 02:53:09;;;;;;;1.02;0.90;;;;;;;27.86;40.54;101774.28;5050641;28;20044;-77
2022/07/04 02:55:34;;;;;;;1.17;0.90;;;;;;;27.84;40.71;101781.53;5047056;28;20029;-77
2022/07/04 02:57:59;;;;;;;1.05;0.90;;;;;;;27.84;40.79;101781.53;5050819;28;20040;-77
2022/07/04 03:00:25;;;;;;;2.17;1.00;;;;;;;27.83;40.84;101777.97;5047224;28;20029;-77
2022/07/04 03:02:50;;;;;;;1.30;1.00;;;;;;;27.81;40.75;101777.16;5050149;28;20044;-77
2022/07/04 03:05:16;;;;;;;1.20;0.90;;;;;;;27.78;40.77;101782.66;5048842;28;20060;-77
2022/07/04 03:07:41;;;;;;;0.90;0.80;;;;;;;27.82;40.52;101776.22;5048064;28;20040;-77
2022/07/04 03:10:07;;;;;;;1.00;0.80;;;;;;;27.81;40.46;101779.00;5044694;28;20602;-77
2022/07/04 03:12:32;;;;;;;1.20;0.90;;;;;;;27.78;40.94;101771.94;5050093;28;20032;-77
2022/07/04 03:14:59;;;;;;;1.40;1.00;;;;;;;27.74;40.60;101781.06;5049812;28;20472;-77
2022/07/04 03:17:25;;;;;;;1.05;0.80;;;;;;;27.76;40.83;101776.50;5050323;28;20120;-77
2022/07/04 03:19:50;;;;;;;1.08;0.80;;;;;;;27.76;40.59;101783.66;5049915;28;20036;-77
2022/07/04 03:22:16;;;;;;;1.00;0.85;;;;;;;27.77;40.48;101782.72;5048576;28;20047;-77
2022/07/04 03:24:41;;;;;;;1.02;0.90;;;;;;;27.75;40.69;101781.94;5049696;28;20529;-77
2022/07/04 03:27:06;;;;;;;2.05;0.90;;;;;;;27.73;40.62;101778.44;5050001;28;20029;-77
2022/07/04 03:29:32;;;;;;;1.15;0.90;;;;;;;27.75;40.54;101785.47;5050067;28;20114;-77
2022/07/04 03:31:57;;;;;;;1.13;0.80;;;;;;;27.74;40.56;101794.47;5032001;28;20037;-78
2022/07/04 03:34:23;;;;;;;0.90;0.80;;;;;;;27.75;40.37;101787.31;5048286;28;20155;-77
2022/07/04 03:36:48;;;;;;;0.90;0.80;;;;;;;27.74;40.67;101786.44;5049456;28;20056;-78
2022/07/04 03:39:13;;;;;;;1.13;0.80;;;;;;;27.71;40.44;101783.00;5048382;28;20737;-77
2022/07/04 03:41:39;;;;;;;0.90;0.80;;;;;;;27.76;40.43;101795.25;5048598;28;20025;-77
2022/07/04 03:44:04;;;;;;;0.90;0.70;;;;;;;27.74;40.45;101790.91;5048931;28;20229;-77
2022/07/04 03:46:30;;;;;;;1.17;0.88;;;;;;;27.70;40.46;101795.50;5048276;28;20086;-78
2022/07/04 03:48:55;;;;;;;1.33;0.77;;;;;;;27.74;40.43;101793.59;5049398;28;20116;-79
2022/07/04 03:51:22;;;;;;;1.73;0.80;;;;;;;27.70;40.59;101786.59;5031499;28;20182;-77
2022/07/04 03:53:48;;;;;;;1.42;0.82;;;;;;;27.72;40.62;101790.09;5047148;28;20132;-77
2022/07/04 03:56:14;;;;;;;1.10;0.80;;;;;;;27.69;40.46;101799.13;5045780;28;20536;-77
2022/07/04 03:58:42;;;;;;;1.27;0.90;;;;;;;27.71;40.38;101799.06;5049244;28;20017;-78
2022/07/04 04:01:08;;;;;;;1.40;0.88;;;;;;;27.70;40.48;101795.50;5047510;28;20033;-77
2022/07/04 04:06:19;;;;;;;1.13;0.90;;;;;;;27.67;40.48;101805.50;5045730;28;20052;-77
2022/07/04 04:08:44;;;;;;;1.40;0.90;;;;;;;27.67;40.52;101806.38;5047838;28;20033;-77
2022/07/04 04:11:09;;;;;;;1.42;0.70;;;;;;;27.65;40.63;101796.66;5048927;28;20059;-77
2022/07/04 04:13:35;;;;;;;1.00;0.90;;;;;;;27.65;40.33;101797.53;5049206;28;20041;-77
2022/07/04 04:16:00;;;;;;;0.98;0.80;;;;;;;27.67;40.30;101792.97;5049087;28;20028;-77
2022/07/04 04:18:26;;;;;;;1.05;0.80;;;;;;;27.68;40.35;101797.41;5048933;28;20021;-77
2022/07/04 04:20:51;;;;;;;1.50;1.00;;;;;;;27.69;40.18;101792.91;5046801;28;20040;-78
2022/07/04 04:23:16;;;;;;;1.17;0.77;;;;;;;27.65;40.45;101797.53;5047587;28;20025;-77
2022/07/04 04:25:42;;;;;;;1.10;0.80;;;;;;;27.70;40.25;101786.59;5048893;28;20016;-77
2022/07/04 04:28:07;;;;;;;1.05;0.90;;;;;;;27.70;40.28;101781.25;5047350;28;20044;-77
2022/07/04 04:30:33;;;;;;;0.93;0.80;;;;;;;27.74;40.00;101783.75;5048474;28;20082;-77
2022/07/04 04:32:58;;;;;;;0.98;0.80;;;;;;;27.74;40.28;101782.88;5048832;28;20367;-78
2022/07/04 04:35:24;;;;;;;1.10;0.80;;;;;;;27.71;39.90;101791.91;5048810;28;20032;-77
2022/07/04 04:37:49;;;;;;;1.73;0.90;;;;;;;27.73;39.85;101787.34;5048750;28;20040;-77
2022/07/04 04:40:15;;;;;;;1.23;0.90;;;;;;;27.72;39.88;101792.78;5046842;28;20029;-78
2022/07/04 04:42:40;;;;;;;1.10;0.80;;;;;;;27.72;39.92;101790.97;5048506;28;20112;-78
2022/07/04 04:45:06;;;;;;;1.10;0.90;;;;;;;27.73;39.93;101797.19;5046893;28;20045;-76
2022/07/04 04:47:31;;;;;;;1.30;0.90;;;;;;;27.70;39.93;101786.59;5046257;28;20383;-77
2022/07/04 04:49:57;;;;;;;1.35;0.80;;;;;;;27.71;40.15;101791.91;5046599;28;20114;-78
2022/07/04 04:52:22;;;;;;;1.08;0.80;;;;;;;27.71;39.94;101799.06;5047236;28;20505;-77
2022/07/04 04:54:47;;;;;;;1.25;0.90;;;;;;;27.72;39.89;101799.00;5046228;28;20060;-77
2022/07/04 04:57:13;;;;;;;1.40;1.00;;;;;;;27.70;39.84;101802.69;5026100;28;20037;-77
2022/07/04 04:59:38;;;;;;;1.05;0.90;;;;;;;27.71;39.99;101804.41;5045526;28;20104;-77
2022/07/04 05:02:04;;;;;;;1.13;0.90;;;;;;;27.70;40.25;101805.34;5048402;28;20039;-77
2022/07/04 05:04:29;;;;;;;1.13;0.90;;;;;;;27.68;40.13;101797.41;5048287;28;20033;-77
2022/07/04 05:06:55;;;;;;;1.17;0.90;;;;;;;27.67;40.34;101797.47;5044495;28;20114;-77
2022/07/04 05:09:21;;;;;;;1.30;1.10;;;;;;;27.67;40.23;101798.34;5045039;28;20029;-77
2022/07/04 05:11:47;;;;;;;1.70;1.00;;;;;;;27.70;40.27;101800.00;5047489;28;20056;-77
2022/07/04 05:14:13;;;;;;;1.85;0.90;;;;;;;27.68;40.12;101801.91;5047939;28;20024;-76
2022/07/04 05:16:39;;;;;;;1.85;1.00;;;;;;;27.70;40.03;101805.34;5048161;28;20040;-76
2022/07/04 05:19:05;;;;;;;1.60;1.10;;;;;;;27.71;40.14;101805.28;5046755;28;20053;-77
2022/07/04 05:21:32;;;;;;;1.23;0.95;;;;;;;27.72;40.33;101815.09;5047943;28;20025;-77
2022/07/04 05:23:57;;;;;;;1.92;1.13;;;;;;;27.72;40.13;101804.38;5047807;28;20021;-77
2022/07/04 05:26:26;;;;;;;1.75;1.08;;;;;;;27.69;40.41;101812.53;5048003;28;20516;-77
2022/07/04 05:28:51;;;;;;;1.55;0.93;;;;;;;27.70;40.37;101808.91;5048454;28;20097;-74
2022/07/04 05:31:17;;;;;;;2.88;1.00;;;;;;;27.75;40.10;101811.41;5047408;28;20120;-73
2022/07/04 05:33:42;;;;;;;2.63;1.10;;;;;;;27.74;40.16;101829.28;5048844;28;20028;-72
2022/07/04 05:36:08;;;;;;;3.30;1.00;;;;;;;27.75;40.56;101825.66;5048957;28;20652;-74
2022/07/04 05:38:33;;;;;;;1.67;1.00;;;;;;;27.75;40.61;101831.00;5047579;28;20036;-73
2022/07/04 05:40:59;;;;;;;1.38;0.95;;;;;;;27.76;40.33;101823.84;5047627;28;20502;-74
2022/07/04 05:43:27;;;;;;;3.33;1.05;;;;;;;27.76;40.65;101827.41;5048729;28;20045;-73
2022/07/04 05:45:53;;;;;;;1.60;1.10;;;;;;;27.77;40.59;101820.25;5048306;28;20171;-72
2022/07/04 05:48:19;;;;;;;1.40;1.00;;;;;;;27.78;40.57;101825.53;5048208;28;20521;-72
2022/07/04 05:50:45;;;;;;;2.03;1.08;;;;;;;27.80;40.57;101823.66;5048832;28;20183;-72
2022/07/04 05:53:10;;;;;;;1.50;1.08;;;;;;;27.84;40.64;101819.03;5050235;28;20108;-73
2022/07/04 05:55:35;;;;;;;3.13;1.10;;;;;;;27.89;40.75;101829.56;5049448;28;20029;-74
2022/07/04 05:58:01;;;;;;;1.10;1.00;;;;;;;27.94;40.44;101824.84;5050334;28;20029;-73
2022/07/04 06:00:27;;;;;;;1.55;0.93;;;;;;;27.96;40.15;101826.53;5052259;28;20029;-72
2022/07/04 06:02:52;;;;;;;1.08;0.90;;;;;;;28.02;40.29;101828.94;5051686;28;20028;-72
2022/07/04 06:05:17;;;;;;;3.17;1.00;;;;;;;28.12;40.02;101824.03;5051559;28;20483;-72
2022/07/04 06:07:43;;;;;;;1.45;1.00;;;;;;;29.91;36.85;101825.25;5046664;28;20044;-72
2022/07/04 06:10:09;;;;;;;1.30;1.00;;;;;;;33.12;30.68;101824.19;5052142;28;20107;-67
2022/07/04 06:12:35;;;;;;;1.67;1.00;;;;;;;30.55;34.90;101823.63;5052703;28;20040;-68
2022/07/04 06:15:00;;;;;;;2.90;1.00;;;;;;;29.95;36.17;101827.72;5050125;28;20036;-71
2022/07/04 06:17:27;;;;;;;1.52;0.90;;;;;;;29.04;38.10;101825.13;5049649;28;20059;-72
2022/07/04 06:19:53;;;;;;;1.90;1.00;;;;;;;28.42;39.67;101828.03;5051138;28;20811;-71
2022/07/04 06:22:18;;;;;;;3.17;1.10;;;;;;;28.29;39.75;101821.53;5051262;28;20108;-71
2022/07/04 06:24:44;;;;;;;3.55;1.23;;;;;;;28.31;39.72;101822.31;5049817;28;20041;-70
2022/07/04 06:27:09;;;;;;;1.83;0.90;;;;;;;28.28;40.07;101832.31;5049757;28;20063;-69
2022/07/04 06:29:35;;;;;;;1.92;1.00;;;;;;;28.29;40.10;101824.22;5051177;28;20364;-69
2022/07/04 06:32:00;;;;;;;1.40;1.00;;;;;;;28.27;40.07;101828.75;5051197;28;20112;-70
2022/07/04 06:37:09;;;;;;;1.30;1.00;;;;;;;28.26;40.24;101835.06;5045106;28;20051;-70
2022/07/04 06:39:35;;;;;;;1.35;1.00;;;;;;;28.25;40.35;101836.88;5051094;28;20025;-69
2022/07/04 06:42:00;;;;;;;2.10;1.05;;;;;;;28.30;40.53;101825.09;5050009;28;20116;-72
2022/07/04 06:44:25;;;;;;;1.38;0.98;;;;;;;28.34;40.41;101821.31;5050599;28;20052;-68
2022/07/04 06:46:51;;;;;;;3.00;1.08;;;;;;;28.34;40.50;101822.19;5051003;28;20138;-74
2022/07/04 06:49:16;;;;;;;5.25;1.20;;;;;;;28.33;40.63;101822.25;5050479;28;20230;-73
2022/07/04 06:51:43;;;;;;;3.50;1.13;;;;;;;28.38;40.81;101822.91;5049515;28;20541;-74
2022/07/04 06:54:08;;;;;;;4.85;1.20;;;;;;;28.37;41.02;101832.75;5047163;28;20029;-76
2022/07/04 06:56:34;;;;;;;7.97;1.25;;;;;;;28.45;40.84;101824.38;5050342;28;20029;-70
2022/07/04 06:58:59;;;;;;;7.97;1.33;;;;;;;28.41;42.02;101829.00;5038264;28;20036;-70
2022/07/04 07:01:25;;;;;;;7.07;1.20;;;;;;;28.50;43.00;101830.38;5043991;28;20039;-72
2022/07/04 07:03:50;;;;;;;3.65;1.20;;;;;;;28.65;41.81;101827.00;5044720;28;20060;-74
2022/07/04 07:06:16;;;;;;;3.55;1.10;;;;;;;28.70;41.73;101830.34;5047757;28;20029;-72
2022/07/04 07:08:41;;;;;;;9.05;1.20;;;;;;;28.67;42.04;101826.94;5048896;28;20112;-75
2022/07/04 07:11:13;;;;;;;4.22;1.20;;;;;;;28.79;42.17;101819.19;5044373;28;20410;-74
2022/07/04 07:13:43;;;;;;;3.88;1.20;;;;;;;28.81;41.77;101819.13;5047324;28;20033;-74
2022/07/04 07:16:08;;;;;;;4.38;1.17;;;;;;;28.90;41.68;101811.50;5046896;28;20147;-74
2022/07/04 07:18:34;;;;;;;3.10;1.00;;;;;;;28.79;41.81;101803.09;5034275;28;20024;-74
2022/07/04 07:20:59;;;;;;;3.25;1.20;;;;;;;28.88;41.85;101812.53;5046926;28;20037;-74
2022/07/04 07:23:24;;;;;;;4.28;1.17;;;;;;;28.92;41.11;101806.06;5047488;28;20086;-74
2022/07/04 07:25:50;;;;;;;4.72;1.20;;;;;;;28.88;41.41;101808.03;5047304;28;20087;-74
2022/07/04 07:28:15;;;;;;;3.33;1.02;;;;;;;28.99;41.13;101808.38;5045301;28;20017;-75
2022/07/04 07:30:41;;;;;;;3.88;1.20;;;;;;;29.12;41.18;101813.13;5046958;28;20032;-75
2022/07/04 07:33:06;;;;;;;5.10;1.00;;;;;;;29.12;40.59;101814.00;5046325;28;20021;-75
2022/07/04 07:35:31;;;;;;;2.80;1.27;;;;;;;29.11;40.71;101808.72;5045535;28;20033;-76
2022/07/04 07:37:57;;;;;;;2.75;1.10;;;;;;;29.20;40.41;101814.50;5045833;28;20456;-76
2022/07/04 07:40:22;;;;;;;3.80;1.10;;;;;;;29.19;40.62;101818.16;5045412;28;20482;-76
2022/07/04 07:42:48;;;;;;;2.60;1.10;;;;;;;29.17;40.55;101821.84;5045292;28;20048;-75
2022/07/04 07:45:13;;;;;;;4.40;1.00;;;;;;;29.23;40.56;101813.47;5046533;28;20465;-75
2022/07/04 07:47:39;;;;;;;3.00;1.00;;;;;;;29.27;40.10;101812.41;5047533;28;20074;-76
2022/07/04 07:50:05;;;;;;;6.90;1.15;;;;;;;29.15;40.38;101818.38;5047028;28;20483;-74
2022/07/04 07:52:30;;;;;;;2.95;1.15;;;;;;;29.11;40.46;101822.13;5046648;28;20037;-74
2022/07/04 07:54:56;;;;;;;5.60;1.33;;;;;;;29.12;41.12;101818.50;5036957;28;20028;-74
2022/07/04 07:57:21;;;;;;;2.78;1.23;;;;;;;29.18;41.22;101810.16;5042473;28;20032;-74
2022/07/04 07:59:46;;;;;;;5.93;1.17;;;;;;;29.37;41.00;101829.81;5039045;28;20120;-72
2022/07/04 08:02:12;;;;;;;3.15;1.02;;;;;;;29.45;40.40;101822.25;5046239;28;20231;-73
2022/07/04 08:04:38;;;;;;;8.85;1.65;;;;;;;29.53;39.75;101814.66;5042798;28;20479;-73
2022/07/04 08:07:09;;;;;;;4.78;1.48;;;;;;;29.52;39.27;101823.66;5047177;28;20490;-73
2022/07/04 08:09:36;;;;;;;4.38;1.65;;;;;;;29.42;38.73;101823.28;5045064;28;20083;-73
2022/07/04 08:12:03;;;;;;;5.25;1.80;;;;;;;29.33;38.90;101815.69;5045513;28;20533;-73
2022/07/04 08:14:29;;;;;;;4.60;1.70;;;;;;;29.34;38.00;101809.34;5044600;28;20033;-73
2022/07/04 08:16:55;;;;;;;4.93;1.65;;;;;;;29.46;37.85;101815.91;5046409;28;20056;-73
2022/07/04 08:19:21;;;;;;;5.95;1.80;;;;;;;29.48;38.30;101815.84;5042417;28;20159;-73
2022/07/04 08:21:49;;;;;;;6.93;1.73;;;;;;;29.47;37.94;101817.66;5025987;28;20127;-74
2022/07/04 08:24:15;;;;;;;6.78;1.67;;;;;;;29.50;37.69;101809.47;5031873;28;20024;-73
2022/07/04 08:26:40;;;;;;;4.15;1.65;;;;;;;29.48;37.64;101814.03;5025246;28;20037;-74
2022/07/04 08:29:06;;;;;;;6.00;1.70;;;;;;;29.49;37.21;101812.22;5022210;28;20025;-73
2022/07/04 08:31:31;;;;;;;5.90;1.80;;;;;;;29.44;37.24;101813.31;5024983;28;20140;-73
2022/07/04 08:33:57;;;;;;;4.32;1.70;;;;;;;29.16;37.82;101807.53;5040034;28;20033;-75
2022/07/04 08:36:22;;;;;;;5.47;1.73;;;;;;;29.12;38.28;101818.50;5041082;28;20039;-75
2022/07/04 08:38:47;;;;;;;6.82;1.80;;;;;;;29.09;38.33;101810.63;5045972;28;20039;-74
2022/07/04 08:41:16;;;;;;;5.93;2.05;;;;;;;29.16;37.55;101803.97;5044134;28;20048;-75
2022/07/04 08:43:41;;;;;;;6.00;1.70;;;;;;;29.11;38.05;101809.59;5044953;28;20486;-74
2022/07/04 08:46:09;;;;;;;5.43;1.48;;;;;;;29.18;38.44;101811.03;5044901;28;20275;-71
2022/07/04 08:48:38;;;;;;;9.85;2.08;;;;;;;29.23;37.45;101806.28;5044763;28;20391;-74
2022/07/04 08:51:15;;;;;;;3.38;1.60;;;;;;;29.27;37.21;101802.53;5045146;28;20159;-74
2022/07/04 08:53:50;;;;;;;10.25;1.67;;;;;;;29.41;37.03;101812.59;5027432;28;20029;-74
2022/07/04 08:59:00;;;;;;;6.70;1.55;;;;;;;29.48;36.33;101821.22;5037279;28;20105;-75
2022/07/04 09:01:26;;;;;;;5.85;1.70;;;;;;;29.36;36.29;101820.88;5044556;28;20036;-72
2022/07/04 09:03:53;;;;;;;6.80;1.42;;;;;;;29.16;35.81;101822.78;5033133;28;20087;-74
2022/07/04 09:06:19;;;;;;;3.28;1.40;;;;;;;29.03;36.23;101826.06;5046674;28;20098;-79
2022/07/04 09:08:44;;;;;;;8.15;1.63;;;;;;;29.16;35.81;101829.03;5048312;28;20033;-68
2022/07/04 09:11:09;;;;;;;4.95;1.52;;;;;;;29.32;35.40;101839.91;5049110;28;20060;-68
2022/07/04 09:13:35;;;;;;;4.72;1.50;;;;;;;29.16;35.51;101833.50;5049267;28;20082;-68
2022/07/04 09:16:02;;;;;;;10.85;1.83;;;;;;;29.21;35.46;101834.19;5050569;28;20039;-66
2022/07/04 09:18:32;;;;;;;6.00;1.75;;;;;;;29.13;36.09;101831.88;5048064;28;20113;-69
2022/07/04 09:21:00;;;;;;;5.68;1.50;;;;;;;29.01;35.77;101827.09;5024944;28;21598;-74
2022/07/04 09:23:29;;;;;;;3.53;1.40;;;;;;;29.01;36.09;101837.84;5026677;28;20029;-74
2022/07/04 09:26:15;;;;;;;6.20;1.60;;;;;;;29.11;35.85;101830.19;5043194;28;20682;-74
2022/07/04 09:28:51;;;;;;;11.13;1.65;;;;;;;29.34;35.79;101829.97;5037237;28;20079;-69
2022/07/04 09:31:19;;;;;;;8.63;1.63;;;;;;;29.33;35.81;101836.31;5033758;28;20029;-72
2022/07/04 09:33:51;;;;;;;9.90;1.30;;;;;;;29.26;35.72;101832.13;5034561;28;20033;-73
2022/07/04 09:36:20;;;;;;;4.22;1.35;;;;;;;28.98;35.71;101840.66;5029518;28;20106;-73
2022/07/04 09:39:03;;;;;;;3.22;1.30;;;;;;;29.09;34.81;101834.78;5029293;28;20072;-76
2022/07/04 09:41:34;;;;;;;6.57;1.50;;;;;;;29.25;33.51;101835.75;5029047;28;20033;-74
2022/07/04 09:44:06;;;;;;;10.85;2.00;;;;;;;29.48;33.33;101840.91;5029039;28;20045;-66
2022/07/04 09:46:33;;;;;;;7.15;1.58;;;;;;;29.53;33.13;101835.28;5038311;28;20047;-67
2022/07/04 09:48:59;;;;;;;3.22;1.48;;;;;;;29.50;34.13;101839.00;5032102;28;20022;-67
2022/07/04 09:51:44;;;;;;;5.35;1.40;;;;;;;29.48;34.31;101832.84;5028220;28;20029;-67
2022/07/04 09:54:14;;;;;;;2.58;1.23;;;;;;;29.46;34.42;101828.50;5036537;28;20124;-67
2022/07/04 09:56:51;;;;;;;2.85;1.30;;;;;;;29.40;34.32;101830.53;5044967;28;20064;-67
2022/07/04 09:59:17;;;;;;;2.38;1.30;;;;;;;29.47;34.26;101822.16;5048654;28;20033;-67
2022/07/04 10:01:43;;;;;;;3.00;1.30;;;;;;;29.53;34.29;101825.41;5043763;28;20144;-65
2022/07/04 10:04:09;;;;;;;4.22;1.30;;;;;;;29.53;33.62;101825.41;5029036;28;20025;-66
2022/07/04 10:06:38;;;;;;;3.22;1.30;;;;;;;29.49;34.02;101822.97;5029133;28;20036;-64
2022/07/04 10:09:12;;;;;;;4.70;1.20;;;;;;;29.49;33.81;101822.97;5042551;28;20456;-63
2022/07/04 10:11:39;;;;;;;3.22;1.45;;;;;;;29.46;33.64;101818.59;5037682;28;20029;-63
2022/07/04 10:14:09;;;;;;;2.60;1.33;;;;;;;29.44;33.31;101820.50;5045286;28;20029;-64
2022/07/04 10:16:36;;;;;;;5.57;1.40;;;;;;;29.44;33.58;101826.75;5034434;28;20025;-64
2022/07/04 10:19:03;;;;;;;2.15;1.30;;;;;;;29.41;33.35;101839.44;5048888;28;20382;-64
2022/07/04 10:21:30;;;;;;;3.65;1.20;;;;;;;29.37;33.51;101836.06;5048158;28;20036;-63
2022/07/04 10:23:55;;;;;;;3.03;1.40;;;;;;;29.34;33.41;101829.97;5043360;28;20632;-64
2022/07/04 10:26:22;;;;;;;1.65;1.10;;;;;;;29.34;32.89;101835.34;5031949;28;20049;-64
2022/07/04 10:28:49;;;;;;;2.67;1.42;;;;;;;29.31;33.09;101832.78;5034768;28;20072;-63
2022/07/04 10:31:16;;;;;;;3.08;1.30;;;;;;;29.23;32.82;101837.66;5044094;28;20044;-65
2022/07/04 10:33:43;;;;;;;4.22;1.40;;;;;;;29.32;33.11;101837.22;5042324;28;20098;-65
2022/07/04 10:36:17;;;;;;;3.08;1.17;;;;;;;29.32;32.64;101842.59;5046272;28;20390;-65
2022/07/04 10:38:55;;;;;;;7.68;1.40;;;;;;;29.37;33.67;101849.50;5034250;28;20563;-65
2022/07/04 10:41:22;;;;;;;8.90;1.33;;;;;;;29.43;34.55;101837.56;5043308;28;20104;-66
2022/07/04 10:43:48;;;;;;;4.20;1.30;;;;;;;29.39;33.97;101836.88;5040166;28;20108;-64
2022/07/04 10:46:13;;;;;;;12.80;1.88;;;;;;;29.22;33.81;101835.91;5040273;28;20071;-69
2022/07/04 10:48:54;;;;;;;5.85;1.50;;;;;;;29.24;33.84;101834.91;5046898;28;20032;-65
2022/07/04 10:51:45;;;;;;;6.15;1.50;;;;;;;29.23;34.50;101826.91;5033807;28;20021;-64
2022/07/04 10:54:16;;;;;;;4.78;1.45;;;;;;;29.20;34.47;101822.56;5040562;28;20025;-64
2022/07/04 10:56:44;;;;;;;8.75;1.40;;;;;;;29.18;34.37;101819.09;5046015;28;20024;-64
2022/07/04 10:59:17;;;;;;;5.00;1.30;;;;;;;29.18;34.54;101826.28;5042123;28;20022;-65
2022/07/04 11:01:57;;;;;;;4.65;1.40;;;;;;;29.16;34.99;101822.78;5046115;28;20100;-65
2022/07/04 11:04:56;;;;;;;4.10;1.52;;;;;;;29.17;34.67;101821.84;5032515;28;20029;-64
2022/07/04 11:07:37;;;;;;;3.30;1.33;;;;;;;29.17;35.09;101820.03;5043189;28;20029;-64
2022/07/04 11:10:12;;;;;;;2.33;1.20;;;;;;;29.19;34.79;101818.16;5034932;28;20041;-65
2022/07/04 11:12:55;;;;;;;4.00;1.25;;;;;;;29.20;35.15;101814.50;5027248;28;20087;-65
2022/07/04 11:15:29;;;;;;;3.78;1.20;;;;;;;29.20;34.97;101809.16;5047433;28;20440;-65
2022/07/04 11:17:58;;;;;;;3.10;1.30;;;;;;;29.16;35.06;101818.28;5047350;28;20737;-65
2022/07/04 11:20:26;;;;;;;2.40;1.20;;;;;;;29.17;35.26;101820.03;5034620;28;20425;-65
2022/07/04 11:22:52;;;;;;;4.72;1.23;;;;;;;29.23;35.55;101814.34;5038701;28;20033;-65
2022/07/04 11:25:18;;;;;;;2.88;1.40;;;;;;;29.17;35.47;101811.97;5043953;28;20080;-65
2022/07/04 11:27:43;;;;;;;1.63;1.20;;;;;;;29.18;35.27;101811.03;5038870;28;20434;-65
2022/07/04 11:30:10;;;;;;;3.90;1.42;;;;;;;29.15;35.83;101811.19;5038621;28;20033;-65
2022/07/04 11:32:37;;;;;;;2.03;1.20;;;;;;;29.20;35.47;101816.34;5039209;28;20096;-65
2022/07/04 11:35:06;;;;;;;2.65;1.33;;;;;;;29.21;35.46;101808.22;5031041;28;20029;-65
2022/07/04 11:37:33;;;;;;;3.85;1.20;;;;;;;29.18;35.74;101819.09;5046595;28;20037;-65